createdAt,value
2018-07-23T00:00:21.353Z,18.65
2018-07-23T00:01:21.508Z,18.70
2018-07-23T00:02:21.664Z,18.67
2018-07-23T00:03:21.817Z,18.61
2018-07-23T00:04:21.974Z,18.52
2018-07-23T00:05:22.129Z,18.61
2018-07-23T00:06:22.284Z,18.40
2018-07-23T00:07:22.441Z,18.42
2018-07-23T00:08:22.595Z,18.39
2018-07-23T00:09:22.755Z,18.24
2018-07-23T00:10:22.907Z,18.27
2018-07-23T00:11:23.063Z,18.12
2018-07-23T00:12:23.218Z,18.17
2018-07-23T00:13:23.371Z,18.17
2018-07-23T00:14:23.527Z,18.13
2018-07-23T00:15:23.684Z,18.17
2018-07-23T00:16:23.835Z,18.25
2018-07-23T00:17:23.990Z,18.13
2018-07-23T00:18:24.144Z,18.15
2018-07-23T00:19:24.301Z,18.09
2018-07-23T00:20:24.456Z,18.06
2018-07-23T00:21:24.611Z,18.02
2018-07-23T00:22:24.764Z,18.09
2018-07-23T00:23:24.920Z,18.15
2018-07-23T00:24:25.077Z,18.17
2018-07-23T00:25:25.230Z,18.17
2018-07-23T00:26:25.389Z,18.10
2018-07-23T00:27:25.544Z,18.17
2018-07-23T00:28:25.702Z,18.13
2018-07-23T00:29:25.858Z,18.18
2018-07-23T00:30:26.011Z,18.12
2018-07-23T00:31:26.162Z,18.10
2018-07-23T00:32:26.319Z,18.13
2018-07-23T00:33:26.473Z,18.07
2018-07-23T00:34:26.627Z,18.13
2018-07-23T00:35:26.783Z,18.15
2018-07-23T00:36:26.937Z,18.06
2018-07-23T00:37:27.091Z,18.00
2018-07-23T00:38:27.248Z,18.03
2018-07-23T00:39:27.402Z,18.07
2018-07-23T00:40:27.558Z,18.03
2018-07-23T00:41:27.714Z,17.97
2018-07-23T00:42:27.868Z,17.94
2018-07-23T00:43:28.023Z,17.91
2018-07-23T00:44:28.179Z,18.00
2018-07-23T00:45:28.334Z,18.04
2018-07-23T00:46:28.489Z,17.94
2018-07-23T00:47:28.645Z,18.06
2018-07-23T00:48:28.800Z,17.88
2018-07-23T00:49:28.954Z,17.87
2018-07-23T00:50:29.109Z,17.92
2018-07-23T00:51:29.264Z,17.92
2018-07-23T00:52:29.420Z,17.89
2018-07-23T00:53:29.574Z,17.88
2018-07-23T00:54:29.729Z,17.89
2018-07-23T00:55:29.886Z,17.91
2018-07-23T00:56:30.038Z,17.88
2018-07-23T00:57:30.192Z,17.88
2018-07-23T00:58:30.347Z,17.78
2018-07-23T00:59:30.503Z,17.85
2018-07-23T01:00:30.656Z,17.82
2018-07-23T01:01:30.812Z,17.73
2018-07-23T01:02:30.969Z,17.78
2018-07-23T01:03:31.126Z,17.78
2018-07-23T01:04:31.280Z,17.66
2018-07-23T01:05:31.437Z,17.62
2018-07-23T01:06:31.589Z,17.70
2018-07-23T01:07:31.747Z,17.73
2018-07-23T01:08:31.899Z,17.69
2018-07-23T01:09:32.055Z,17.73
2018-07-23T01:10:32.211Z,17.74
2018-07-23T01:11:32.394Z,17.69
2018-07-23T01:12:32.551Z,17.63
2018-07-23T01:13:32.707Z,17.64
2018-07-23T01:14:32.862Z,17.64
2018-07-23T01:15:33.015Z,17.70
2018-07-23T01:16:33.171Z,17.73
2018-07-23T01:17:33.325Z,17.70
2018-07-23T01:18:33.479Z,17.71
2018-07-23T01:19:33.636Z,17.64
2018-07-23T01:20:33.790Z,17.74
2018-07-23T01:21:33.945Z,17.69
2018-07-23T01:22:34.104Z,17.62
2018-07-23T01:23:34.256Z,17.62
2018-07-23T01:24:34.411Z,17.57
2018-07-23T01:25:34.567Z,17.50
2018-07-23T01:26:34.722Z,17.41
2018-07-23T01:27:34.876Z,17.43
2018-07-23T01:28:35.034Z,17.43
2018-07-23T01:29:35.184Z,17.29
2018-07-23T01:30:35.341Z,17.41
2018-07-23T01:31:35.493Z,17.40
2018-07-23T01:32:35.649Z,17.35
2018-07-23T01:33:35.808Z,17.26
2018-07-23T01:34:35.958Z,17.46
2018-07-23T01:35:36.115Z,17.41
2018-07-23T01:36:36.273Z,17.35
2018-07-23T01:37:36.424Z,17.35
2018-07-23T01:38:36.580Z,17.41
2018-07-23T01:39:36.734Z,17.36
2018-07-23T01:40:36.894Z,17.28
2018-07-23T01:41:37.044Z,17.40
2018-07-23T01:42:37.200Z,17.32
2018-07-23T01:43:37.354Z,17.25
2018-07-23T01:44:37.509Z,17.35
2018-07-23T01:45:37.661Z,17.28
2018-07-23T01:46:37.815Z,17.20
2018-07-23T01:47:37.972Z,17.17
2018-07-23T01:48:38.126Z,17.15
2018-07-23T01:49:38.283Z,17.10
2018-07-23T01:50:38.438Z,17.22
2018-07-23T01:51:38.590Z,17.08
2018-07-23T01:52:38.743Z,17.14
2018-07-23T01:53:38.902Z,17.25
2018-07-23T01:54:39.053Z,17.18
2018-07-23T01:55:39.210Z,17.25
2018-07-23T01:56:39.363Z,17.33
2018-07-23T01:57:39.518Z,17.26
2018-07-23T01:58:39.675Z,17.28
2018-07-23T01:59:39.831Z,17.23
2018-07-23T02:00:39.986Z,17.14
2018-07-23T02:01:40.141Z,17.07
2018-07-23T02:02:40.296Z,17.03
2018-07-23T02:03:40.451Z,17.06
2018-07-23T02:04:40.606Z,17.06
2018-07-23T02:05:40.762Z,17.00
2018-07-23T02:06:40.916Z,16.99
2018-07-23T02:07:41.067Z,16.95
2018-07-23T02:08:41.220Z,16.92
2018-07-23T02:09:41.375Z,16.99
2018-07-23T02:10:41.533Z,16.99
2018-07-23T02:11:41.686Z,16.95
2018-07-23T02:12:41.838Z,16.88
2018-07-23T02:13:41.995Z,16.95
2018-07-23T02:14:42.149Z,16.83
2018-07-23T02:15:42.303Z,16.83
2018-07-23T02:16:42.458Z,16.81
2018-07-23T02:17:42.616Z,16.80
2018-07-23T02:18:42.765Z,16.73
2018-07-23T02:19:42.919Z,16.80
2018-07-23T02:20:43.076Z,16.74
2018-07-23T02:21:43.229Z,16.70
2018-07-23T02:22:43.386Z,16.74
2018-07-23T02:23:43.539Z,16.59
2018-07-23T02:24:43.693Z,16.58
2018-07-23T02:25:43.848Z,16.56
2018-07-23T02:26:44.001Z,16.67
2018-07-23T02:27:44.156Z,16.68
2018-07-23T02:28:44.309Z,16.67
2018-07-23T02:29:44.465Z,16.63
2018-07-23T02:30:44.618Z,16.71
2018-07-23T02:31:44.772Z,16.71
2018-07-23T02:32:44.926Z,16.74
2018-07-23T02:33:45.078Z,16.70
2018-07-23T02:34:45.233Z,16.71
2018-07-23T02:35:45.385Z,16.70
2018-07-23T02:36:45.540Z,16.78
2018-07-23T02:37:45.696Z,16.65
2018-07-23T02:38:45.857Z,16.68
2018-07-23T02:39:46.012Z,16.63
2018-07-23T02:40:46.164Z,16.71
2018-07-23T02:41:46.320Z,16.60
2018-07-23T02:42:46.481Z,16.55
2018-07-23T02:43:46.630Z,16.56
2018-07-23T02:44:46.787Z,16.53
2018-07-23T02:45:46.946Z,16.55
2018-07-23T02:46:47.092Z,16.58
2018-07-23T02:47:47.248Z,16.53
2018-07-23T02:48:47.403Z,16.63
2018-07-23T02:49:47.557Z,16.62
2018-07-23T02:50:47.712Z,16.49
2018-07-23T02:51:47.865Z,16.55
2018-07-23T02:52:48.017Z,16.60
2018-07-23T02:53:48.172Z,16.48
2018-07-23T02:54:48.330Z,16.44
2018-07-23T02:55:48.482Z,16.48
2018-07-23T02:56:48.639Z,16.44
2018-07-23T02:57:48.794Z,16.45
2018-07-23T02:58:48.951Z,16.38
2018-07-23T02:59:49.102Z,16.41
2018-07-23T03:00:49.255Z,16.48
2018-07-23T03:01:49.412Z,16.41
2018-07-23T03:02:49.568Z,16.50
2018-07-23T03:03:49.721Z,16.50
2018-07-23T03:04:49.875Z,16.45
2018-07-23T03:05:50.030Z,16.48
2018-07-23T03:06:50.184Z,16.52
2018-07-23T03:07:50.337Z,16.58
2018-07-23T03:08:50.493Z,16.59
2018-07-23T03:09:50.648Z,16.55
2018-07-23T03:10:50.800Z,16.52
2018-07-23T03:11:50.956Z,16.55
2018-07-23T03:12:51.112Z,16.65
2018-07-23T03:13:51.267Z,16.58
2018-07-23T03:14:51.422Z,16.63
2018-07-23T03:15:51.578Z,16.60
2018-07-23T03:16:51.731Z,16.68
2018-07-23T03:17:51.887Z,16.73
2018-07-23T03:18:52.041Z,16.70
2018-07-23T03:19:52.196Z,16.86
2018-07-23T03:20:52.351Z,16.86
2018-07-23T03:21:52.652Z,16.96
2018-07-23T03:22:52.664Z,16.96
2018-07-23T03:23:52.814Z,16.89
2018-07-23T03:24:52.968Z,16.92
2018-07-23T03:25:53.122Z,17.07
2018-07-23T03:26:53.283Z,17.06
2018-07-23T03:27:53.433Z,17.07
2018-07-23T03:28:53.586Z,17.08
2018-07-23T03:29:53.744Z,17.07
2018-07-23T03:30:53.903Z,17.17
2018-07-23T03:31:54.053Z,17.23
2018-07-23T03:32:54.206Z,17.13
2018-07-23T03:33:54.361Z,17.14
2018-07-23T03:34:54.514Z,17.14
2018-07-23T03:35:54.671Z,17.00
2018-07-23T03:36:54.824Z,16.90
2018-07-23T03:37:54.979Z,16.73
2018-07-23T03:38:55.135Z,16.78
2018-07-23T03:39:55.289Z,16.73
2018-07-23T03:40:55.443Z,16.70
2018-07-23T03:41:55.598Z,16.71
2018-07-23T03:42:55.751Z,16.65
2018-07-23T03:43:55.907Z,16.71
2018-07-23T03:44:56.063Z,16.73
2018-07-23T03:45:56.217Z,16.80
2018-07-23T03:46:56.371Z,16.80
2018-07-23T03:47:56.526Z,16.85
2018-07-23T03:48:56.680Z,16.78
2018-07-23T03:49:56.837Z,16.90
2018-07-23T03:50:56.989Z,16.85
2018-07-23T03:51:57.141Z,16.89
2018-07-23T03:52:57.295Z,16.80
2018-07-23T03:53:57.454Z,16.88
2018-07-23T03:54:57.605Z,16.86
2018-07-23T03:55:57.762Z,16.89
2018-07-23T03:56:57.916Z,16.83
2018-07-23T03:57:58.071Z,16.86
2018-07-23T03:58:58.223Z,16.78
2018-07-23T03:59:58.381Z,16.86
2018-07-23T04:00:58.533Z,16.81
2018-07-23T04:01:58.688Z,16.89
2018-07-23T04:02:58.844Z,16.78
2018-07-23T04:03:58.998Z,16.71
2018-07-23T04:04:59.154Z,16.71
2018-07-23T04:05:59.307Z,16.75
2018-07-23T04:06:59.461Z,16.74
2018-07-23T04:07:59.616Z,16.80
2018-07-23T04:08:59.771Z,16.83
2018-07-23T04:09:59.994Z,16.88
2018-07-23T04:11:00.081Z,16.85
2018-07-23T04:12:00.235Z,16.81
2018-07-23T04:13:00.389Z,16.77
2018-07-23T04:14:00.546Z,16.78
2018-07-23T04:15:00.699Z,16.89
2018-07-23T04:16:00.854Z,16.98
2018-07-23T04:17:01.009Z,17.06
2018-07-23T04:18:01.164Z,17.04
2018-07-23T04:19:01.318Z,16.81
2018-07-23T04:20:01.478Z,16.77
2018-07-23T04:21:01.629Z,16.88
2018-07-23T04:22:01.785Z,16.80
2018-07-23T04:23:01.940Z,16.71
2018-07-23T04:24:02.096Z,16.80
2018-07-23T04:25:02.252Z,16.85
2018-07-23T04:26:02.403Z,16.73
2018-07-23T04:27:02.557Z,16.83
2018-07-23T04:28:02.710Z,16.98
2018-07-23T04:29:02.866Z,17.08
2018-07-23T04:30:03.020Z,17.03
2018-07-23T04:31:03.175Z,17.04
2018-07-23T04:32:03.330Z,17.11
2018-07-23T04:33:03.487Z,17.11
2018-07-23T04:34:03.642Z,17.22
2018-07-23T04:35:03.794Z,17.15
2018-07-23T04:36:03.950Z,17.18
2018-07-23T04:37:04.104Z,17.28
2018-07-23T04:38:04.263Z,17.13
2018-07-23T04:39:04.416Z,17.18
2018-07-23T04:40:04.573Z,17.18
2018-07-23T04:41:04.726Z,17.14
2018-07-23T04:42:04.887Z,17.13
2018-07-23T04:43:05.036Z,17.25
2018-07-23T04:44:05.190Z,17.29
2018-07-23T04:45:05.347Z,17.36
2018-07-23T04:46:05.501Z,17.40
2018-07-23T04:47:05.657Z,17.48
2018-07-23T04:48:05.812Z,17.69
2018-07-23T04:49:05.964Z,17.69
2018-07-23T04:50:06.119Z,17.70
2018-07-23T04:51:06.275Z,17.82
2018-07-23T04:52:06.431Z,17.79
2018-07-23T04:53:06.586Z,17.87
2018-07-23T04:54:06.742Z,18.10
2018-07-23T04:55:06.894Z,18.06
2018-07-23T04:56:07.052Z,18.06
2018-07-23T04:57:07.206Z,18.06
2018-07-23T04:58:07.361Z,17.92
2018-07-23T04:59:07.516Z,17.84
2018-07-23T05:00:07.673Z,17.82
2018-07-23T05:01:07.829Z,17.74
2018-07-23T05:02:07.987Z,17.73
2018-07-23T05:03:08.140Z,17.66
2018-07-23T05:04:08.300Z,17.69
2018-07-23T05:05:08.453Z,17.79
2018-07-23T05:06:08.610Z,17.69
2018-07-23T05:07:08.765Z,17.73
2018-07-23T05:08:08.919Z,17.82
2018-07-23T05:09:09.074Z,17.73
2018-07-23T05:10:09.230Z,17.63
2018-07-23T05:11:09.383Z,17.70
2018-07-23T05:12:09.539Z,17.94
2018-07-23T05:13:09.694Z,17.94
2018-07-23T05:14:09.850Z,18.00
2018-07-23T05:15:10.006Z,18.21
2018-07-23T05:16:10.163Z,18.33
2018-07-23T05:17:10.317Z,18.37
2018-07-23T05:18:10.473Z,18.43
2018-07-23T05:19:10.631Z,18.58
2018-07-23T05:20:10.785Z,18.58
2018-07-23T05:21:10.941Z,18.64
2018-07-23T05:22:11.094Z,18.74
2018-07-23T05:23:11.253Z,18.61
2018-07-23T05:24:11.406Z,18.62
2018-07-23T05:25:11.563Z,18.54
2018-07-23T05:26:11.732Z,18.42
2018-07-23T05:27:11.875Z,18.40
2018-07-23T05:28:12.030Z,18.55
2018-07-23T05:29:12.192Z,18.67
2018-07-23T05:30:12.342Z,18.74
2018-07-23T05:31:12.498Z,18.65
2018-07-23T05:32:12.652Z,18.62
2018-07-23T05:33:12.808Z,18.59
2018-07-23T05:34:12.966Z,18.74
2018-07-23T05:35:13.121Z,18.80
2018-07-23T05:36:13.279Z,18.84
2018-07-23T05:37:13.434Z,18.91
2018-07-23T05:38:13.645Z,18.92
2018-07-23T05:39:13.746Z,18.82
2018-07-23T05:40:13.903Z,18.83
2018-07-23T05:41:14.060Z,18.98
2018-07-23T05:42:14.213Z,19.01
2018-07-23T05:43:14.372Z,18.99
2018-07-23T05:44:14.531Z,19.13
2018-07-23T05:45:14.685Z,19.11
2018-07-23T05:46:14.842Z,19.23
2018-07-23T05:47:14.996Z,19.23
2018-07-23T05:48:15.150Z,19.31
2018-07-23T05:49:15.307Z,19.33
2018-07-23T05:50:15.465Z,19.36
2018-07-23T05:51:15.620Z,19.47
2018-07-23T05:52:15.775Z,19.42
2018-07-23T05:53:15.931Z,19.39
2018-07-23T05:54:16.090Z,19.47
2018-07-23T05:55:16.244Z,19.42
2018-07-23T05:56:16.401Z,19.39
2018-07-23T05:57:16.557Z,19.39
2018-07-23T05:58:16.715Z,19.36
2018-07-23T05:59:16.871Z,19.39
2018-07-23T06:00:17.027Z,19.38
2018-07-23T06:01:17.184Z,19.43
2018-07-23T06:02:17.339Z,19.51
2018-07-23T06:03:17.496Z,19.65
2018-07-23T06:04:17.655Z,19.60
2018-07-23T06:05:17.810Z,19.76
2018-07-23T06:06:17.988Z,19.78
2018-07-23T06:07:18.127Z,19.69
2018-07-23T06:08:18.281Z,19.55
2018-07-23T06:09:18.436Z,19.54
2018-07-23T06:10:18.593Z,19.55
2018-07-23T06:11:18.748Z,19.68
2018-07-23T06:12:18.907Z,19.80
2018-07-23T06:13:19.062Z,19.75
2018-07-23T06:14:19.216Z,19.88
2018-07-23T06:15:19.374Z,20.02
2018-07-23T06:16:19.532Z,20.10
2018-07-23T06:17:19.691Z,20.15
2018-07-23T06:18:19.845Z,20.21
2018-07-23T06:19:20.000Z,20.02
2018-07-23T06:20:20.158Z,20.10
2018-07-23T06:21:20.317Z,20.28
2018-07-23T06:22:20.473Z,20.10
2018-07-23T06:23:20.630Z,20.06
2018-07-23T06:24:20.786Z,20.25
2018-07-23T06:25:20.958Z,20.25
2018-07-23T06:26:21.101Z,20.34
2018-07-23T06:27:21.257Z,20.54
2018-07-23T06:28:21.415Z,20.61
2018-07-23T06:29:21.572Z,20.54
2018-07-23T06:30:21.780Z,20.15
2018-07-23T06:31:21.886Z,20.16
2018-07-23T06:32:22.061Z,20.27
2018-07-23T06:33:22.202Z,20.38
2018-07-23T06:34:22.360Z,20.39
2018-07-23T06:35:22.517Z,20.35
2018-07-23T06:36:22.675Z,20.41
2018-07-23T06:37:22.830Z,20.53
2018-07-23T06:38:22.989Z,20.74
2018-07-23T06:39:23.144Z,20.66
2018-07-23T06:40:23.301Z,20.81
2018-07-23T06:41:23.456Z,20.90
2018-07-23T06:42:23.613Z,20.91
2018-07-23T06:43:23.812Z,20.89
2018-07-23T06:44:23.932Z,20.99
2018-07-23T06:45:24.087Z,20.96
2018-07-23T06:46:24.248Z,21.16
2018-07-23T06:47:24.399Z,21.30
2018-07-23T06:48:24.556Z,21.34
2018-07-23T06:49:24.720Z,21.34
2018-07-23T06:50:24.873Z,21.26
2018-07-23T06:51:25.028Z,21.35
2018-07-23T06:52:25.186Z,21.44
2018-07-23T06:53:25.341Z,21.29
2018-07-23T06:54:25.499Z,21.04
2018-07-23T06:55:25.658Z,21.02
2018-07-23T06:56:25.815Z,21.09
2018-07-23T06:57:25.996Z,21.23
2018-07-23T06:58:26.129Z,21.39
2018-07-23T06:59:26.288Z,21.42
2018-07-23T07:00:26.445Z,21.51
2018-07-23T07:01:26.601Z,21.30
2018-07-23T07:02:26.760Z,21.41
2018-07-23T07:03:26.923Z,21.30
2018-07-23T07:04:27.077Z,21.53
2018-07-23T07:05:27.233Z,21.72
2018-07-23T07:06:27.410Z,21.78
2018-07-23T07:07:27.547Z,21.74
2018-07-23T07:08:27.705Z,21.71
2018-07-23T07:09:27.869Z,21.91
2018-07-23T07:10:28.020Z,22.09
2018-07-23T07:11:28.182Z,22.06
2018-07-23T07:12:28.336Z,22.12
2018-07-23T07:13:28.520Z,22.16
2018-07-23T07:14:28.656Z,22.32
2018-07-23T07:15:28.809Z,22.47
2018-07-23T07:16:28.968Z,22.49
2018-07-23T07:17:29.128Z,22.50
2018-07-23T07:18:29.286Z,22.53
2018-07-23T07:19:29.443Z,22.67
2018-07-23T07:20:29.601Z,22.56
2018-07-23T07:21:29.775Z,22.78
2018-07-23T07:22:29.931Z,22.47
2018-07-23T07:23:30.091Z,22.43
2018-07-23T07:24:30.246Z,22.56
2018-07-23T07:25:30.455Z,22.56
2018-07-23T07:26:30.564Z,22.62
2018-07-23T07:27:30.725Z,22.65
2018-07-23T07:28:30.882Z,22.78
2018-07-23T07:29:31.039Z,22.57
2018-07-23T07:30:31.198Z,22.60
2018-07-23T07:31:31.357Z,22.71
2018-07-23T07:32:31.515Z,22.80
2018-07-23T07:33:31.675Z,22.97
2018-07-23T07:34:31.831Z,23.07
2018-07-23T07:35:31.989Z,23.27
2018-07-23T07:36:32.150Z,23.47
2018-07-23T07:37:32.309Z,23.57
2018-07-23T07:38:32.476Z,23.52
2018-07-23T07:39:32.659Z,23.50
2018-07-23T07:40:32.788Z,23.60
2018-07-23T07:41:32.947Z,23.77
2018-07-23T07:42:33.105Z,23.70
2018-07-23T07:43:33.264Z,23.90
2018-07-23T07:44:33.423Z,23.98
2018-07-23T07:45:33.582Z,24.02
2018-07-23T07:46:33.771Z,24.04
2018-07-23T07:47:33.899Z,24.14
2018-07-23T07:48:34.061Z,24.22
2018-07-23T07:49:34.220Z,24.08
2018-07-23T07:50:34.377Z,24.19
2018-07-23T07:51:34.536Z,24.13
2018-07-23T07:52:34.697Z,24.27
2018-07-23T07:53:34.854Z,24.17
2018-07-23T07:54:35.012Z,24.31
2018-07-23T07:55:35.176Z,24.39
2018-07-23T07:56:35.332Z,24.44
2018-07-23T07:57:35.491Z,24.52
2018-07-23T07:58:35.649Z,24.54
2018-07-23T07:59:35.808Z,24.42
2018-07-23T08:00:35.967Z,24.60
2018-07-23T08:01:36.126Z,24.68
2018-07-23T08:02:36.289Z,24.64
2018-07-23T08:03:36.446Z,24.69
2018-07-23T08:04:36.606Z,24.56
2018-07-23T08:05:36.766Z,24.82
2018-07-23T08:06:36.931Z,24.90
2018-07-23T08:07:37.085Z,24.85
2018-07-23T08:08:37.245Z,24.94
2018-07-23T08:09:37.405Z,24.97
2018-07-23T08:10:37.565Z,25.02
2018-07-23T08:11:37.725Z,25.10
2018-07-23T08:12:37.978Z,25.02
2018-07-23T08:13:38.042Z,25.02
2018-07-23T08:14:38.202Z,25.12
2018-07-23T08:15:38.364Z,25.06
2018-07-23T08:16:38.526Z,25.15
2018-07-23T08:17:38.687Z,25.16
2018-07-23T08:18:38.843Z,25.12
2018-07-23T08:19:39.004Z,25.17
2018-07-23T08:20:39.163Z,25.28
2018-07-23T08:21:39.324Z,25.39
2018-07-23T08:22:39.485Z,25.53
2018-07-23T08:23:39.647Z,25.67
2018-07-23T08:24:39.808Z,25.77
2018-07-23T08:25:39.968Z,25.82
2018-07-23T08:26:40.130Z,25.82
2018-07-23T08:27:40.301Z,25.84
2018-07-23T08:28:40.450Z,25.89
2018-07-23T08:29:40.614Z,25.99
2018-07-23T08:30:40.775Z,26.11
2018-07-23T08:31:41.004Z,26.20
2018-07-23T08:32:41.093Z,26.15
2018-07-23T08:33:41.256Z,26.20
2018-07-23T08:34:41.415Z,26.22
2018-07-23T08:35:41.561Z,26.36
2018-07-23T08:36:41.754Z,26.40
2018-07-23T08:37:41.912Z,26.43
2018-07-23T08:38:42.085Z,26.58
2018-07-23T08:39:42.238Z,26.61
2018-07-23T08:40:42.397Z,26.57
2018-07-23T08:41:42.557Z,26.77
2018-07-23T08:42:42.724Z,26.79
2018-07-23T08:43:42.880Z,26.73
2018-07-23T08:44:43.042Z,26.92
2018-07-23T08:45:43.204Z,27.04
2018-07-23T08:46:43.368Z,26.99
2018-07-23T08:47:43.530Z,26.95
2018-07-23T08:48:43.691Z,26.95
2018-07-23T08:49:43.854Z,26.96
2018-07-23T08:50:44.024Z,26.95
2018-07-23T08:51:44.179Z,27.13
2018-07-23T08:52:44.339Z,27.24
2018-07-23T08:53:44.498Z,27.19
2018-07-23T08:54:44.660Z,27.39
2018-07-23T08:55:44.823Z,27.41
2018-07-23T08:56:44.984Z,27.43
2018-07-23T08:57:45.145Z,27.47
2018-07-23T08:58:45.311Z,27.50
2018-07-23T08:59:45.469Z,27.58
2018-07-23T09:00:45.629Z,27.51
2018-07-23T09:01:45.793Z,27.66
2018-07-23T09:02:45.953Z,27.28
2018-07-23T09:03:46.117Z,27.32
2018-07-23T09:04:46.278Z,27.26
2018-07-23T09:05:46.438Z,27.26
2018-07-23T09:06:46.598Z,26.84
2018-07-23T09:07:46.761Z,27.05
2018-07-23T09:08:46.959Z,27.09
2018-07-23T09:09:47.088Z,27.28
2018-07-23T09:10:47.248Z,27.16
2018-07-23T09:11:47.409Z,27.28
2018-07-23T09:12:47.571Z,27.21
2018-07-23T09:13:47.731Z,27.28
2018-07-23T09:14:47.894Z,27.31
2018-07-23T09:15:48.056Z,27.28
2018-07-23T09:16:48.218Z,27.02
2018-07-23T09:17:48.379Z,26.99
2018-07-23T09:18:48.540Z,27.02
2018-07-23T09:19:48.705Z,27.28
2018-07-23T09:20:48.871Z,27.24
2018-07-23T09:21:49.030Z,27.42
2018-07-23T09:22:49.196Z,27.43
2018-07-23T09:23:49.408Z,27.50
2018-07-23T09:24:49.513Z,27.51
2018-07-23T09:25:49.674Z,27.43
2018-07-23T09:26:49.835Z,27.36
2018-07-23T09:27:49.996Z,27.47
2018-07-23T09:28:50.156Z,27.43
2018-07-23T09:29:50.321Z,27.84
2018-07-23T09:30:50.477Z,27.96
2018-07-23T09:31:50.632Z,28.19
2018-07-23T09:32:50.795Z,28.25
2018-07-23T09:33:50.958Z,28.38
2018-07-23T09:34:51.119Z,28.47
2018-07-23T09:35:51.284Z,28.28
2018-07-23T09:36:51.445Z,28.16
2018-07-23T09:37:51.606Z,28.09
2018-07-23T09:38:51.768Z,27.89
2018-07-23T09:39:51.930Z,28.06
2018-07-23T09:40:52.092Z,28.03
2018-07-23T09:41:52.252Z,28.14
2018-07-23T09:42:52.416Z,27.98
2018-07-23T09:43:52.580Z,28.25
2018-07-23T09:44:52.741Z,28.43
2018-07-23T09:45:52.904Z,28.51
2018-07-23T09:46:53.070Z,28.70
2018-07-23T09:47:53.231Z,28.68
2018-07-23T09:48:53.394Z,28.75
2018-07-23T09:49:53.560Z,28.84
2018-07-23T09:50:53.723Z,29.07
2018-07-23T09:51:53.883Z,28.95
2018-07-23T09:52:54.046Z,28.90
2018-07-23T09:53:54.207Z,28.66
2018-07-23T09:54:54.368Z,28.72
2018-07-23T09:55:54.532Z,28.62
2018-07-23T09:56:54.681Z,28.33
2018-07-23T09:57:54.861Z,28.54
2018-07-23T09:58:55.025Z,28.28
2018-07-23T09:59:55.192Z,28.16
2018-07-23T10:00:55.353Z,28.33
2018-07-23T10:01:55.516Z,28.40
2018-07-23T10:02:55.739Z,28.32
2018-07-23T10:03:55.840Z,28.32
2018-07-23T10:04:56.001Z,28.40
2018-07-23T10:05:56.166Z,28.48
2018-07-23T10:06:56.328Z,28.22
2018-07-23T10:07:56.489Z,28.28
2018-07-23T10:08:56.651Z,28.17
2018-07-23T10:09:56.812Z,28.51
2018-07-23T10:10:56.978Z,28.73
2018-07-23T10:11:57.137Z,28.75
2018-07-23T10:12:57.300Z,28.68
2018-07-23T10:13:57.463Z,28.81
2018-07-23T10:14:57.625Z,28.91
2018-07-23T10:15:57.790Z,29.15
2018-07-23T10:16:57.953Z,29.11
2018-07-23T10:17:58.118Z,28.85
2018-07-23T10:18:58.277Z,28.93
2018-07-23T10:19:58.441Z,28.77
2018-07-23T10:20:58.601Z,28.78
2018-07-23T10:21:58.763Z,28.69
2018-07-23T10:22:58.926Z,28.77
2018-07-23T10:23:59.089Z,28.87
2018-07-23T10:24:59.252Z,29.00
2018-07-23T10:25:59.414Z,29.13
2018-07-23T10:26:59.577Z,29.26
2018-07-23T10:27:59.739Z,29.40
2018-07-23T10:28:59.903Z,29.55
2018-07-23T10:30:00.065Z,29.87
2018-07-23T10:31:00.224Z,29.90
2018-07-23T10:32:00.386Z,30.08
2018-07-23T10:33:00.549Z,30.09
2018-07-23T10:34:00.713Z,30.00
2018-07-23T10:35:00.891Z,29.90
2018-07-23T10:36:01.038Z,29.75
2018-07-23T10:37:01.203Z,30.05
2018-07-23T10:38:01.366Z,30.24
2018-07-23T10:39:01.530Z,30.43
2018-07-23T10:40:01.690Z,30.30
2018-07-23T10:41:01.856Z,30.24
2018-07-23T10:42:02.011Z,30.38
2018-07-23T10:43:02.173Z,30.37
2018-07-23T10:44:02.336Z,30.68
2018-07-23T10:45:02.503Z,30.49
2018-07-23T10:46:02.664Z,30.57
2018-07-23T10:47:02.847Z,30.52
2018-07-23T10:48:03.013Z,30.31
2018-07-23T10:49:03.174Z,30.23
2018-07-23T10:50:03.340Z,30.02
2018-07-23T10:51:03.535Z,29.81
2018-07-23T10:52:03.665Z,29.56
2018-07-23T10:53:03.830Z,29.44
2018-07-23T10:54:03.996Z,29.60
2018-07-23T10:55:04.158Z,29.84
2018-07-23T10:56:04.320Z,29.87
2018-07-23T10:57:04.537Z,30.27
2018-07-23T10:58:04.646Z,30.34
2018-07-23T10:59:04.808Z,30.71
2018-07-23T11:00:04.972Z,30.90
2018-07-23T11:01:05.135Z,31.05
2018-07-23T11:02:05.299Z,31.17
2018-07-23T11:03:05.466Z,31.20
2018-07-23T11:04:05.627Z,31.17
2018-07-23T11:05:05.793Z,30.81
2018-07-23T11:06:05.958Z,31.01
2018-07-23T11:07:06.120Z,31.05
2018-07-23T11:08:06.284Z,31.06
2018-07-23T11:09:06.447Z,31.01
2018-07-23T11:10:06.614Z,31.04
2018-07-23T11:11:06.777Z,31.05
2018-07-23T11:12:06.941Z,30.93
2018-07-23T11:13:07.103Z,30.68
2018-07-23T11:14:07.269Z,30.23
2018-07-23T11:15:07.434Z,30.37
2018-07-23T11:16:07.600Z,30.47
2018-07-23T11:17:07.762Z,30.46
2018-07-23T11:18:07.926Z,30.29
2018-07-23T11:19:08.125Z,30.47
2018-07-23T11:20:08.258Z,30.62
2018-07-23T11:21:08.423Z,30.67
2018-07-23T11:22:08.586Z,30.68
2018-07-23T11:23:08.749Z,30.65
2018-07-23T11:24:08.917Z,30.61
2018-07-23T11:25:38.596Z,30.65
2018-07-23T11:26:09.242Z,30.69
2018-07-23T11:27:09.409Z,30.69
2018-07-23T11:28:09.574Z,30.90
2018-07-23T11:29:09.743Z,30.83
2018-07-23T11:30:09.900Z,31.08
2018-07-23T11:31:10.065Z,31.36
2018-07-23T11:32:10.287Z,31.49
2018-07-23T11:33:10.392Z,31.24
2018-07-23T11:34:10.560Z,30.99
2018-07-23T11:35:10.722Z,31.11
2018-07-23T11:36:10.889Z,31.18
2018-07-23T11:37:11.052Z,31.09
2018-07-23T11:38:11.216Z,30.99
2018-07-23T11:39:11.379Z,30.72
2018-07-23T11:40:11.545Z,30.94
2018-07-23T11:41:11.703Z,30.81
2018-07-23T11:42:11.868Z,30.91
2018-07-23T11:43:12.033Z,30.98
2018-07-23T11:44:12.196Z,31.11
2018-07-23T11:45:12.396Z,30.81
2018-07-23T11:46:24.447Z,30.98
2018-07-23T11:47:12.741Z,30.84
2018-07-23T11:48:12.852Z,30.71
2018-07-23T11:49:13.015Z,30.83
2018-07-23T11:50:13.183Z,30.75
2018-07-23T11:51:13.344Z,31.09
2018-07-23T11:52:14.361Z,31.21
2018-07-23T11:53:13.678Z,31.30
2018-07-23T11:54:13.838Z,31.36
2018-07-23T11:55:14.006Z,31.27
2018-07-23T11:56:14.164Z,31.57
2018-07-23T11:57:14.331Z,31.67
2018-07-23T11:58:14.496Z,31.46
2018-07-23T11:59:14.658Z,31.36
2018-07-23T12:00:14.835Z,31.35
2018-07-23T12:01:14.996Z,31.40
2018-07-23T12:02:15.161Z,31.53
2018-07-23T12:03:15.323Z,31.68
2018-07-23T12:04:15.544Z,31.91
2018-07-23T12:05:15.649Z,31.67
2018-07-23T12:06:15.814Z,31.30
2018-07-23T12:07:15.977Z,31.54
2018-07-23T12:08:16.142Z,31.39
2018-07-23T12:09:16.308Z,31.31
2018-07-23T12:10:16.474Z,31.08
2018-07-23T12:11:16.638Z,30.99
2018-07-23T12:12:16.806Z,30.84
2018-07-23T12:13:16.973Z,30.75
2018-07-23T12:14:17.131Z,30.75
2018-07-23T12:15:17.295Z,30.68
2018-07-23T12:16:17.461Z,30.69
2018-07-23T12:17:17.636Z,30.40
2018-07-23T12:18:17.789Z,30.37
2018-07-23T12:19:17.955Z,30.33
2018-07-23T12:20:18.122Z,30.07
2018-07-23T12:21:18.284Z,30.02
2018-07-23T12:22:18.449Z,29.79
2018-07-23T12:23:18.611Z,29.78
2018-07-23T12:24:18.778Z,29.59
2018-07-23T12:25:18.941Z,29.60
2018-07-23T12:26:19.106Z,29.57
2018-07-23T12:27:19.269Z,29.87
2018-07-23T12:28:19.436Z,30.15
2018-07-23T12:29:19.600Z,30.49
2018-07-23T12:30:19.764Z,30.71
2018-07-23T12:31:19.929Z,30.99
2018-07-23T12:32:20.107Z,31.35
2018-07-23T12:33:20.258Z,31.23
2018-07-23T12:34:20.422Z,31.50
2018-07-23T12:35:20.587Z,31.61
2018-07-23T12:36:20.751Z,31.45
2018-07-23T12:37:20.916Z,31.58
2018-07-23T12:38:21.080Z,31.76
2018-07-23T12:39:21.270Z,31.93
2018-07-23T12:40:21.410Z,31.33
2018-07-23T12:41:21.573Z,31.13
2018-07-23T12:42:21.739Z,31.21
2018-07-23T12:43:21.902Z,30.86
2018-07-23T12:44:22.064Z,30.53
2018-07-23T12:45:22.229Z,30.67
2018-07-23T12:46:22.396Z,30.49
2018-07-23T12:47:22.579Z,30.46
2018-07-23T12:48:22.724Z,30.65
2018-07-23T12:49:22.888Z,30.64
2018-07-23T12:50:23.054Z,30.62
2018-07-23T12:51:23.219Z,31.04
2018-07-23T12:52:23.384Z,31.49
2018-07-23T12:53:23.549Z,31.24
2018-07-23T12:54:23.710Z,31.49